sensor_id;sensor_type;location;lat;lon;timestamp;pressure;altitude;pressure_sealevel;temperature;humidity
60337;BME280;46978;50.288;28.624;2022-09-19T00:00:12;97574.44;;;8.62;100.00
60337;BME280;46978;50.288;28.624;2022-09-19T00:01:18;97578.77;;;8.61;100.00
60337;BME280;46978;50.288;28.624;2022-09-19T00:02:22;97578.77;;;8.61;100.00
60337;BME280;46978;50.288;28.624;2022-09-19T00:03:26;97581.36;;;8.61;100.00
60337;BME280;46978;50.288;28.624;2022-09-19T00:04:31;97586.53;;;8.61;100.00
60337;BME280;46978;50.288;28.624;2022-09-19T00:05:39;97586.53;;;8.61;100.00
60337;BME280;46978;50.288;28.624;2022-09-19T00:06:42;97586.53;;;8.61;100.00
60337;BME280;46978;50.288;28.624;2022-09-19T00:07:47;97583.94;;;8.61;100.00
60337;BME280;46978;50.288;28.624;2022-09-19T00:08:49;97592.53;;;8.62;100.00
60337;BME280;46978;50.288;28.624;2022-09-19T00:09:51;97585.66;;;8.61;100.00
60337;BME280;46978;50.288;28.624;2022-09-19T00:10:53;97589.11;;;8.61;100.00
60337;BME280;46978;50.288;28.624;2022-09-19T00:11:55;97583.08;;;8.61;100.00
60337;BME280;46978;50.288;28.624;2022-09-19T00:12:57;97586.59;;;8.60;100.00
60337;BME280;46978;50.288;28.624;2022-09-19T00:13:59;97589.17;;;8.60;100.00
60337;BME280;46978;50.288;28.624;2022-09-19T00:15:01;97594.34;;;8.60;100.00
60337;BME280;46978;50.288;28.624;2022-09-19T00:16:04;97589.17;;;8.60;100.00
60337;BME280;46978;50.288;28.624;2022-09-19T00:17:07;97588.25;;;8.61;100.00
60337;BME280;46978;50.288;28.624;2022-09-19T00:18:09;97590.84;;;8.61;100.00
60337;BME280;46978;50.288;28.624;2022-09-19T00:19:13;97587.36;;;8.62;100.00
60337;BME280;46978;50.288;28.624;2022-09-19T00:20:16;97594.28;;;8.61;100.00
60337;BME280;46978;50.288;28.624;2022-09-19T00:21:22;97590.84;;;8.61;100.00
60337;BME280;46978;50.288;28.624;2022-09-19T00:22:26;97587.42;;;8.60;100.00
60337;BME280;46978;50.288;28.624;2022-09-19T00:23:28;97590.84;;;8.61;100.00
60337;BME280;46978;50.288;28.624;2022-09-19T00:24:30;97591.76;;;8.60;100.00
60337;BME280;46978;50.288;28.624;2022-09-19T00:25:32;97596.06;;;8.59;100.00
60337;BME280;46978;50.288;28.624;2022-09-19T00:26:34;97587.42;;;8.60;100.00
60337;BME280;46978;50.288;28.624;2022-09-19T00:27:36;97599.52;;;8.60;100.00
60337;BME280;46978;50.288;28.624;2022-09-19T00:28:58;97594.28;;;8.61;100.00
60337;BME280;46978;50.288;28.624;2022-09-19T00:30:00;97598.59;;;8.61;100.00
60337;BME280;46978;50.288;28.624;2022-09-19T00:31:02;97595.17;;;8.60;100.00
60337;BME280;46978;50.288;28.624;2022-09-19T00:32:05;97598.59;;;8.61;100.00
60337;BME280;46978;50.288;28.624;2022-09-19T00:33:07;97599.52;;;8.60;100.00
60337;BME280;46978;50.288;28.624;2022-09-19T00:34:10;97600.34;;;8.60;100.00
60337;BME280;46978;50.288;28.624;2022-09-19T00:35:12;97598.59;;;8.61;100.00
60337;BME280;46978;50.288;28.624;2022-09-19T00:36:15;97603.77;;;8.61;100.00
60337;BME280;46978;50.288;28.624;2022-09-19T00:37:18;97602.09;;;8.60;100.00
60337;BME280;46978;50.288;28.624;2022-09-19T00:38:23;97598.65;;;8.59;100.00
60337;BME280;46978;50.288;28.624;2022-09-19T00:39:25;97608.99;;;8.59;100.00
60337;BME280;46978;50.288;28.624;2022-09-19T00:40:28;97604.69;;;8.60;100.00
60337;BME280;46978;50.288;28.624;2022-09-19T00:41:32;97602.09;;;8.60;100.00
60337;BME280;46978;50.288;28.624;2022-09-19T00:42:34;97602.09;;;8.60;100.00
60337;BME280;46978;50.288;28.624;2022-09-19T00:43:51;97601.23;;;8.59;100.00
60337;BME280;46978;50.288;28.624;2022-09-19T00:45:06;97602.94;;;8.60;100.00
60337;BME280;46978;50.288;28.624;2022-09-19T00:46:05;97608.99;;;8.59;100.00
60337;BME280;46978;50.288;28.624;2022-09-19T00:47:15;97602.98;;;8.59;100.00
60337;BME280;46978;50.288;28.624;2022-09-19T00:48:21;97605.58;;;8.59;100.00
60337;BME280;46978;50.288;28.624;2022-09-19T00:49:25;97608.16;;;8.59;100.00
60337;BME280;46978;50.288;28.624;2022-09-19T00:50:29;97606.47;;;8.58;100.00
60337;BME280;46978;50.288;28.624;2022-09-19T00:51:39;97607.33;;;8.58;100.00
60337;BME280;46978;50.288;28.624;2022-09-19T00:52:49;97618.50;;;8.59;100.00
60337;BME280;46978;50.288;28.624;2022-09-19T00:53:51;97613.33;;;8.59;100.00
60337;BME280;46978;50.288;28.624;2022-09-19T00:54:53;97605.58;;;8.59;100.00
60337;BME280;46978;50.288;28.624;2022-09-19T00:55:55;97613.33;;;8.59;100.00
60337;BME280;46978;50.288;28.624;2022-09-19T00:56:58;97615.08;;;8.58;100.00
60337;BME280;46978;50.288;28.624;2022-09-19T00:59:06;97612.50;;;8.58;100.00
60337;BME280;46978;50.288;28.624;2022-09-19T01:00:09;97619.39;;;8.58;100.00
60337;BME280;46978;50.288;28.624;2022-09-19T01:01:13;97615.14;;;8.57;100.00
60337;BME280;46978;50.288;28.624;2022-09-19T01:02:17;97618.56;;;8.57;100.00
60337;BME280;46978;50.288;28.624;2022-09-19T01:03:20;97618.50;;;8.59;100.00
60337;BME280;46978;50.288;28.624;2022-09-19T01:04:24;97621.98;;;8.58;100.00
60337;BME280;46978;50.288;28.624;2022-09-19T01:05:29;97620.31;;;8.57;100.00
60337;BME280;46978;50.288;28.624;2022-09-19T01:07:54;97619.45;;;8.56;100.00
60337;BME280;46978;50.288;28.624;2022-09-19T01:11:01;97619.51;;;8.55;100.00
60337;BME280;46978;50.288;28.624;2022-09-19T01:11:50;97615.27;;;8.54;100.00
60337;BME280;46978;50.288;28.624;2022-09-19T01:13:03;97624.68;;;8.55;100.00
60337;BME280;46978;50.288;28.624;2022-09-19T01:15:37;97621.20;;;8.56;100.00
60337;BME280;46978;50.288;28.624;2022-09-19T01:16:48;97610.86;;;8.56;100.00
60337;BME280;46978;50.288;28.624;2022-09-19T01:17:51;97624.68;;;8.55;100.00
60337;BME280;46978;50.288;28.624;2022-09-19T01:18:57;97623.79;;;8.56;100.00
60337;BME280;46978;50.288;28.624;2022-09-19T01:25:44;97629.08;;;8.53;100.00
60337;BME280;46978;50.288;28.624;2022-09-19T01:27:13;97626.48;;;8.53;100.00
60337;BME280;46978;50.288;28.624;2022-09-19T01:28:17;97626.48;;;8.53;100.00
60337;BME280;46978;50.288;28.624;2022-09-19T01:30:56;97629.91;;;8.53;100.00
60337;BME280;46978;50.288;28.624;2022-09-19T01:31:52;97639.41;;;8.53;100.00
60337;BME280;46978;50.288;28.624;2022-09-19T01:33:00;97633.36;;;8.54;100.00
60337;BME280;46978;50.288;28.624;2022-09-19T01:34:07;97638.53;;;8.54;100.00
60337;BME280;46978;50.288;28.624;2022-09-19T01:35:11;97632.49;;;8.53;100.00
60337;BME280;46978;50.288;28.624;2022-09-19T01:36:15;97640.25;;;8.53;100.00
60337;BME280;46978;50.288;28.624;2022-09-19T01:37:27;97638.53;;;8.54;100.00
60337;BME280;46978;50.288;28.624;2022-09-19T01:38:30;97637.66;;;8.53;100.00
60337;BME280;46978;50.288;28.624;2022-09-19T01:39:36;97638.53;;;8.54;100.00
60337;BME280;46978;50.288;28.624;2022-09-19T01:40:40;97642.00;;;8.53;100.00
60337;BME280;46978;50.288;28.624;2022-09-19T01:41:50;97649.70;;;8.54;100.00
60337;BME280;46978;50.288;28.624;2022-09-19T01:42:54;97650.59;;;8.53;100.00
60337;BME280;46978;50.288;28.624;2022-09-19T01:44:01;97648.00;;;8.53;100.00
60337;BME280;46978;50.288;28.624;2022-09-19T01:45:08;97647.17;;;8.53;100.00
60337;BME280;46978;50.288;28.624;2022-09-19T01:46:16;97649.75;;;8.53;100.00
60337;BME280;46978;50.288;28.624;2022-09-19T01:49:56;97657.52;;;8.53;100.00
60337;BME280;46978;50.288;28.624;2022-09-19T01:52:34;97656.68;;;8.52;100.00
60337;BME280;46978;50.288;28.624;2022-09-19T01:56:20;97659.20;;;8.54;100.00
60337;BME280;46978;50.288;28.624;2022-09-19T02:00:10;97672.13;;;8.54;100.00
60337;BME280;46978;50.288;28.624;2022-09-19T02:01:11;97673.86;;;8.53;100.00
60337;BME280;46978;50.288;28.624;2022-09-19T02:02:28;97672.13;;;8.54;100.00
60337;BME280;46978;50.288;28.624;2022-09-19T02:04:35;97673.86;;;8.53;100.00
60337;BME280;46978;50.288;28.624;2022-09-19T02:06:14;97671.27;;;8.53;100.00
60337;BME280;46978;50.288;28.624;2022-09-19T02:07:22;97688.48;;;8.54;100.00
60337;BME280;46978;50.288;28.624;2022-09-19T02:08:32;97689.31;;;8.55;100.00
60337;BME280;46978;50.288;28.624;2022-09-19T02:10:42;97685.00;;;8.55;100.00
60337;BME280;46978;50.288;28.624;2022-09-19T02:10:59;97684.14;;;8.55;100.00
60337;BME280;46978;50.288;28.624;2022-09-19T02:12:02;97676.38;;;8.55;100.00
60337;BME280;46978;50.288;28.624;2022-09-19T02:13:06;97680.66;;;8.56;100.00
60337;BME280;46978;50.288;28.624;2022-09-19T02:14:16;97686.67;;;8.56;100.00
60337;BME280;46978;50.288;28.624;2022-09-19T02:15:16;97685.06;;;8.54;100.00
60337;BME280;46978;50.288;28.624;2022-09-19T02:16:25;97690.12;;;8.57;100.00
60337;BME280;46978;50.288;28.624;2022-09-19T02:17:33;97688.42;;;8.56;100.00
60337;BME280;46978;50.288;28.624;2022-09-19T02:18:52;97690.12;;;8.57;100.00
60337;BME280;46978;50.288;28.624;2022-09-19T02:19:56;97691.01;;;8.56;100.00
60337;BME280;46978;50.288;28.624;2022-09-19T02:21:04;97690.12;;;8.57;100.00
60337;BME280;46978;50.288;28.624;2022-09-19T02:22:18;97692.70;;;8.57;100.00
60337;BME280;46978;50.288;28.624;2022-09-19T02:23:19;97691.78;;;8.58;100.00
60337;BME280;46978;50.288;28.624;2022-09-19T02:24:29;97694.31;;;8.59;100.00
60337;BME280;46978;50.288;28.624;2022-09-19T02:25:34;97693.48;;;8.59;100.00
60337;BME280;46978;50.288;28.624;2022-09-19T02:26:38;97691.72;;;8.59;100.00
60337;BME280;46978;50.288;28.624;2022-09-19T02:27:55;97696.84;;;8.61;100.00
60337;BME280;46978;50.288;28.624;2022-09-19T02:28:58;97696.84;;;8.61;100.00
60337;BME280;46978;50.288;28.624;2022-09-19T02:30:04;97692.53;;;8.61;100.00
60337;BME280;46978;50.288;28.624;2022-09-19T02:31:07;97692.53;;;8.61;100.00
60337;BME280;46978;50.288;28.624;2022-09-19T02:32:10;97691.67;;;8.61;100.00
60337;BME280;46978;50.288;28.624;2022-09-19T02:33:12;97702.88;;;8.61;100.00
60337;BME280;46978;50.288;28.624;2022-09-19T02:34:14;97702.88;;;8.61;100.00
60337;BME280;46978;50.288;28.624;2022-09-19T02:35:24;97702.01;;;8.61;100.00
60337;BME280;46978;50.288;28.624;2022-09-19T02:37:59;97700.29;;;8.61;100.00
60337;BME280;46978;50.288;28.624;2022-09-19T02:39:12;97704.54;;;8.63;100.00
60337;BME280;46978;50.288;28.624;2022-09-19T02:40:26;97702.01;;;8.61;100.00
60337;BME280;46978;50.288;28.624;2022-09-19T02:41:33;97705.46;;;8.61;100.00
60337;BME280;46978;50.288;28.624;2022-09-19T02:43:56;97702.81;;;8.63;100.00
60337;BME280;46978;50.288;28.624;2022-09-19T02:45:13;97707.98;;;8.63;100.00
60337;BME280;46978;50.288;28.624;2022-09-19T02:46:22;97712.30;;;8.63;100.00
60337;BME280;46978;50.288;28.624;2022-09-19T02:47:40;97714.05;;;8.62;100.00
60337;BME280;46978;50.288;28.624;2022-09-19T02:48:58;97710.62;;;8.61;100.00
60337;BME280;46978;50.288;28.624;2022-09-19T02:50:01;97708.88;;;8.62;100.00
60337;BME280;46978;50.288;28.624;2022-09-19T02:51:16;97711.47;;;8.62;100.00
60337;BME280;46978;50.288;28.624;2022-09-19T02:52:20;97714.05;;;8.62;100.00
60337;BME280;46978;50.288;28.624;2022-09-19T02:53:25;97716.63;;;8.62;100.00
60337;BME280;46978;50.288;28.624;2022-09-19T02:54:31;97717.47;;;8.63;100.00
60337;BME280;46978;50.288;28.624;2022-09-19T02:55:37;97716.63;;;8.62;100.00
60337;BME280;46978;50.288;28.624;2022-09-19T02:56:40;97717.47;;;8.63;100.00
60337;BME280;46978;50.288;28.624;2022-09-19T02:57:46;97714.05;;;8.62;100.00
60337;BME280;46978;50.288;28.624;2022-09-19T02:58:51;97721.80;;;8.62;100.00
60337;BME280;46978;50.288;28.624;2022-09-19T02:59:56;97722.64;;;8.63;100.00
60337;BME280;46978;50.288;28.624;2022-09-19T03:01:02;97717.47;;;8.63;100.00
60337;BME280;46978;50.288;28.624;2022-09-19T03:02:11;97725.22;;;8.63;100.00
60337;BME280;46978;50.288;28.624;2022-09-19T03:03:25;97733.84;;;8.63;100.00
60337;BME280;46978;50.288;28.624;2022-09-19T03:04:32;97726.92;;;8.64;100.00
60337;BME280;46978;50.288;28.624;2022-09-19T03:05:33;97724.34;;;8.64;100.00
60337;BME280;46978;50.288;28.624;2022-09-19T03:06:37;97736.38;;;8.65;100.00
60337;BME280;46978;50.288;28.624;2022-09-19T03:07:44;97736.38;;;8.65;100.00
60337;BME280;46978;50.288;28.624;2022-09-19T03:08:47;97730.34;;;8.64;100.00
60337;BME280;46978;50.288;28.624;2022-09-19T03:10:03;97737.20;;;8.65;100.00
60337;BME280;46978;50.288;28.624;2022-09-19T03:11:08;97736.38;;;8.65;100.00
60337;BME280;46978;50.288;28.624;2022-09-19T03:12:29;97738.96;;;8.65;100.00
60337;BME280;46978;50.288;28.624;2022-09-19T03:13:31;97733.84;;;8.63;100.00
60337;BME280;46978;50.288;28.624;2022-09-19T03:14:33;97743.27;;;8.64;100.00
60337;BME280;46978;50.288;28.624;2022-09-19T03:15:38;97727.75;;;8.64;100.00
60337;BME280;46978;50.288;28.624;2022-09-19T03:16:42;97732.92;;;8.64;100.00
60337;BME280;46978;50.288;28.624;2022-09-19T03:17:47;97741.55;;;8.65;100.00
60337;BME280;46978;50.288;28.624;2022-09-19T03:18:52;97733.79;;;8.65;100.00
60337;BME280;46978;50.288;28.624;2022-09-19T03:19:56;97744.13;;;8.65;100.00
60337;BME280;46978;50.288;28.624;2022-09-19T03:21:05;97741.55;;;8.65;100.00
60337;BME280;46978;50.288;28.624;2022-09-19T03:22:07;97745.02;;;8.64;100.00
60337;BME280;46978;50.288;28.624;2022-09-19T03:23:09;97743.27;;;8.64;100.00
60337;BME280;46978;50.288;28.624;2022-09-19T03:24:13;97749.36;;;8.63;100.00
60337;BME280;46978;50.288;28.624;2022-09-19T03:25:15;97751.08;;;8.63;100.00
60337;BME280;46978;50.288;28.624;2022-09-19T03:26:20;97756.25;;;8.63;100.00
60337;BME280;46978;50.288;28.624;2022-09-19T03:27:22;97750.25;;;8.62;100.00
60337;BME280;46978;50.288;28.624;2022-09-19T03:28:24;97757.11;;;8.63;100.00
60337;BME280;46978;50.288;28.624;2022-09-19T03:29:25;97758.78;;;8.64;100.00
60337;BME280;46978;50.288;28.624;2022-09-19T03:30:27;97758.78;;;8.64;100.00
60337;BME280;46978;50.288;28.624;2022-09-19T03:31:29;97764.81;;;8.65;100.00
60337;BME280;46978;50.288;28.624;2022-09-19T03:32:31;97761.31;;;8.66;100.00
60337;BME280;46978;50.288;28.624;2022-09-19T03:33:33;97765.65;;;8.65;100.00
60337;BME280;46978;50.288;28.624;2022-09-19T03:34:35;97763.06;;;8.65;100.00
60337;BME280;46978;50.288;28.624;2022-09-19T03:35:37;97765.65;;;8.65;100.00
60337;BME280;46978;50.288;28.624;2022-09-19T03:36:39;97767.45;;;8.63;100.00
60337;BME280;46978;50.288;28.624;2022-09-19T03:37:41;97769.98;;;8.65;100.00
60337;BME280;46978;50.288;28.624;2022-09-19T03:38:43;97776.83;;;8.66;100.00
60337;BME280;46978;50.288;28.624;2022-09-19T03:39:45;97772.52;;;8.66;100.00
60337;BME280;46978;50.288;28.624;2022-09-19T03:41:07;97775.11;;;8.66;100.00
60337;BME280;46978;50.288;28.624;2022-09-19T03:42:08;97771.66;;;8.66;100.00
60337;BME280;46978;50.288;28.624;2022-09-19T03:43:10;97771.70;;;8.64;100.00
60337;BME280;46978;50.288;28.624;2022-09-19T03:44:12;97776.83;;;8.66;100.00
60337;BME280;46978;50.288;28.624;2022-09-19T03:45:14;97790.63;;;8.66;100.00
60337;BME280;46978;50.288;28.624;2022-09-19T03:46:18;97777.69;;;8.66;100.00
60337;BME280;46978;50.288;28.624;2022-09-19T03:47:21;97787.11;;;8.67;100.00
60337;BME280;46978;50.288;28.624;2022-09-19T03:48:24;97783.70;;;8.67;100.00
60337;BME280;46978;50.288;28.624;2022-09-19T03:49:25;97781.94;;;8.67;100.00
60337;BME280;46978;50.288;28.624;2022-09-19T03:50:27;97787.11;;;8.67;100.00
60337;BME280;46978;50.288;28.624;2022-09-19T03:51:31;97796.63;;;8.67;100.00
60337;BME280;46978;50.288;28.624;2022-09-19T03:52:33;97797.45;;;8.67;100.00
60337;BME280;46978;50.288;28.624;2022-09-19T03:53:34;97794.04;;;8.67;100.00
60337;BME280;46978;50.288;28.624;2022-09-19T03:54:36;97801.80;;;8.67;100.00
60337;BME280;46978;50.288;28.624;2022-09-19T03:55:38;97797.45;;;8.67;100.00
60337;BME280;46978;50.288;28.624;2022-09-19T03:56:40;97795.79;;;8.66;99.95
60337;BME280;46978;50.288;28.624;2022-09-19T03:57:42;97800.05;;;8.67;100.00
60337;BME280;46978;50.288;28.624;2022-09-19T03:58:44;97804.38;;;8.67;100.00
60337;BME280;46978;50.288;28.624;2022-09-19T03:59:46;97800.91;;;8.68;100.00
60337;BME280;46978;50.288;28.624;2022-09-19T04:00:48;97800.91;;;8.68;100.00
60337;BME280;46978;50.288;28.624;2022-09-19T04:01:50;97804.38;;;8.67;99.60
60337;BME280;46978;50.288;28.624;2022-09-19T04:02:52;97806.13;;;8.66;99.72
60337;BME280;46978;50.288;28.624;2022-09-19T04:03:53;97806.13;;;8.66;99.89
60337;BME280;46978;50.288;28.624;2022-09-19T04:04:55;97807.02;;;8.65;99.78
60337;BME280;46978;50.288;28.624;2022-09-19T04:05:56;97810.44;;;8.66;99.75
60337;BME280;46978;50.288;28.624;2022-09-19T04:06:58;97813.95;;;8.65;99.51
60337;BME280;46978;50.288;28.624;2022-09-19T04:08:01;97812.25;;;8.64;99.81
60337;BME280;46978;50.288;28.624;2022-09-19T04:09:03;97819.22;;;8.61;99.43
60337;BME280;46978;50.288;28.624;2022-09-19T04:10:06;97819.17;;;8.63;99.63
60337;BME280;46978;50.288;28.624;2022-09-19T04:11:08;97815.77;;;8.61;99.77
60337;BME280;46978;50.288;28.624;2022-09-19T04:12:10;97819.22;;;8.61;99.85
60337;BME280;46978;50.288;28.624;2022-09-19T04:13:12;97820.95;;;8.61;99.94
60337;BME280;46978;50.288;28.624;2022-09-19T04:14:14;97824.39;;;8.61;99.78
60337;BME280;46978;50.288;28.624;2022-09-19T04:15:16;97822.70;;;8.60;99.82
60337;BME280;46978;50.288;28.624;2022-09-19T04:16:20;97825.28;;;8.60;99.81
60337;BME280;46978;50.288;28.624;2022-09-19T04:17:22;97824.45;;;8.60;99.90
60337;BME280;46978;50.288;28.624;2022-09-19T04:18:24;97825.23;;;8.62;100.00
60337;BME280;46978;50.288;28.624;2022-09-19T04:19:25;97832.16;;;8.61;99.92
60337;BME280;46978;50.288;28.624;2022-09-19T04:20:30;97830.40;;;8.62;99.61
60337;BME280;46978;50.288;28.624;2022-09-19T04:21:31;97829.56;;;8.61;99.55
60337;BME280;46978;50.288;28.624;2022-09-19T04:22:33;97828.75;;;8.59;98.80
60337;BME280;46978;50.288;28.624;2022-09-19T04:23:35;97831.29;;;8.61;99.15
60337;BME280;46978;50.288;28.624;2022-09-19T04:24:37;97824.45;;;8.60;99.38
60337;BME280;46978;50.288;28.624;2022-09-19T04:25:39;97835.63;;;8.60;99.55
60337;BME280;46978;50.288;28.624;2022-09-19T04:26:41;97836.45;;;8.61;99.58
60337;BME280;46978;50.288;28.624;2022-09-19T04:27:42;97826.98;;;8.61;99.51
60337;BME280;46978;50.288;28.624;2022-09-19T04:28:44;97832.94;;;8.64;99.51
60337;BME280;46978;50.288;28.624;2022-09-19T04:29:46;97838.94;;;8.64;99.55
60337;BME280;46978;50.288;28.624;2022-09-19T04:30:48;97837.16;;;8.66;99.48
60337;BME280;46978;50.288;28.624;2022-09-19T04:31:49;97841.47;;;8.66;99.06
60337;BME280;46978;50.288;28.624;2022-09-19T04:32:51;97844.92;;;8.66;99.24
60337;BME280;46978;50.288;28.624;2022-09-19T04:33:53;97842.33;;;8.66;99.12
60337;BME280;46978;50.288;28.624;2022-09-19T04:34:54;97844.00;;;8.67;99.17
60337;BME280;46978;50.288;28.624;2022-09-19T04:35:56;97843.95;;;8.69;99.28
60337;BME280;46978;50.288;28.624;2022-09-19T04:36:58;97845.65;;;8.70;99.37
60337;BME280;46978;50.288;28.624;2022-09-19T04:38:12;97842.23;;;8.69;99.43
60337;BME280;46978;50.288;28.624;2022-09-19T04:39:11;97848.18;;;8.71;99.40
60337;BME280;46978;50.288;28.624;2022-09-19T04:40:14;97849.88;;;8.72;99.40
60337;BME280;46978;50.288;28.624;2022-09-19T04:41:16;97852.47;;;8.72;99.07
60337;BME280;46978;50.288;28.624;2022-09-19T04:42:18;97852.47;;;8.72;99.07
60337;BME280;46978;50.288;28.624;2022-09-19T04:43:20;97854.19;;;8.72;99.17
60337;BME280;46978;50.288;28.624;2022-09-19T04:44:22;97849.88;;;8.72;99.16
60337;BME280;46978;50.288;28.624;2022-09-19T04:45:24;97859.41;;;8.70;98.68
60337;BME280;46978;50.288;28.624;2022-09-19T04:46:27;97856.88;;;8.69;98.96
60337;BME280;46978;50.288;28.624;2022-09-19T04:47:29;97859.47;;;8.69;99.28
60337;BME280;46978;50.288;28.624;2022-09-19T04:48:31;97861.22;;;8.68;99.39
60337;BME280;46978;50.288;28.624;2022-09-19T04:49:33;97862.97;;;8.68;99.51
60337;BME280;46978;50.288;28.624;2022-09-19T04:50:36;97863.80;;;8.68;99.53
60337;BME280;46978;50.288;28.624;2022-09-19T04:51:38;97862.10;;;8.67;99.59
60337;BME280;46978;50.288;28.624;2022-09-19T04:52:41;97866.44;;;8.67;99.98
60337;BME280;46978;50.288;28.624;2022-09-19T04:53:43;97869.86;;;8.67;99.63
60337;BME280;46978;50.288;28.624;2022-09-19T04:54:46;97869.86;;;8.67;99.63
60337;BME280;46978;50.288;28.624;2022-09-19T04:55:53;97876.78;;;8.67;99.77
60337;BME280;46978;50.288;28.624;2022-09-19T04:56:55;97875.95;;;8.66;99.90
60337;BME280;46978;50.288;28.624;2022-09-19T04:57:58;97875.90;;;8.68;100.00
60337;BME280;46978;50.288;28.624;2022-09-19T04:59:00;97877.67;;;8.66;99.67
60337;BME280;46978;50.288;28.624;2022-09-19T05:00:04;97879.31;;;8.68;99.62
60337;BME280;46978;50.288;28.624;2022-09-19T05:01:07;97881.02;;;8.69;99.69
60337;BME280;46978;50.288;28.624;2022-09-19T05:02:09;97886.97;;;8.71;99.44
60337;BME280;46978;50.288;28.624;2022-09-19T05:03:12;97878.33;;;8.72;99.54
60337;BME280;46978;50.288;28.624;2022-09-19T05:04:14;97893.79;;;8.74;99.61
60337;BME280;46978;50.288;28.624;2022-09-19T05:05:16;97885.98;;;8.75;99.59
60337;BME280;46978;50.288;28.624;2022-09-19T05:06:18;97891.93;;;8.77;99.68
60337;BME280;46978;50.288;28.624;2022-09-19T05:07:21;97891.05;;;8.78;99.59
60337;BME280;46978;50.288;28.624;2022-09-19T05:08:25;97890.13;;;8.79;99.63
60337;BME280;46978;50.288;28.624;2022-09-19T05:09:28;97891.77;;;8.82;99.36
60337;BME280;46978;50.288;28.624;2022-09-19T05:10:32;97890.89;;;8.83;99.14
60337;BME280;46978;50.288;28.624;2022-09-19T05:11:34;97892.61;;;8.83;98.63
60337;BME280;46978;50.288;28.624;2022-09-19T05:12:35;97899.48;;;8.84;98.68
60337;BME280;46978;50.288;28.624;2022-09-19T05:13:38;97899.48;;;8.84;98.26
60337;BME280;46978;50.288;28.624;2022-09-19T05:14:40;97902.06;;;8.84;97.90
60337;BME280;46978;50.288;28.624;2022-09-19T05:15:44;97908.02;;;8.86;98.02
60337;BME280;46978;50.288;28.624;2022-09-19T05:16:46;97908.02;;;8.86;98.02
60337;BME280;46978;50.288;28.624;2022-09-19T05:17:47;97910.55;;;8.87;97.38
60337;BME280;46978;50.288;28.624;2022-09-19T05:18:49;97917.42;;;8.88;97.27
60337;BME280;46978;50.288;28.624;2022-09-19T05:19:51;97919.95;;;8.90;97.41
60337;BME280;46978;50.288;28.624;2022-09-19T05:20:54;97919.02;;;8.92;97.49
60337;BME280;46978;50.288;28.624;2022-09-19T05:21:56;97927.61;;;8.93;97.55
60337;BME280;46978;50.288;28.624;2022-09-19T05:22:59;97918.10;;;8.93;97.70
60337;BME280;46978;50.288;28.624;2022-09-19T05:24:02;97917.16;;;8.96;97.63
60337;BME280;46978;50.288;28.624;2022-09-19T05:25:04;97922.33;;;8.96;97.13
60337;BME280;46978;50.288;28.624;2022-09-19T05:26:12;97926.56;;;8.99;97.17
60337;BME280;46978;50.288;28.624;2022-09-19T05:27:14;97926.52;;;9.00;97.32
60337;BME280;46978;50.288;28.624;2022-09-19T05:28:16;97934.22;;;9.02;97.21
60337;BME280;46978;50.288;28.624;2022-09-19T05:29:18;97929.88;;;9.02;97.31
60337;BME280;46978;50.288;28.624;2022-09-19T05:30:21;97924.70;;;9.02;97.21
60337;BME280;46978;50.288;28.624;2022-09-19T05:31:23;97926.41;;;9.03;96.89
60337;BME280;46978;50.288;28.624;2022-09-19T05:32:25;97935.00;;;9.04;96.63
60337;BME280;46978;50.288;28.624;2022-09-19T05:33:27;97926.41;;;9.03;96.50
60337;BME280;46978;50.288;28.624;2022-09-19T05:34:28;97930.66;;;9.04;96.04
60337;BME280;46978;50.288;28.624;2022-09-19T05:35:31;97926.30;;;9.06;95.90
60337;BME280;46978;50.288;28.624;2022-09-19T05:36:32;97929.78;;;9.05;95.79
60337;BME280;46978;50.288;28.624;2022-09-19T05:37:40;97940.12;;;9.05;95.21
60337;BME280;46978;50.288;28.624;2022-09-19T05:38:40;97941.83;;;9.06;95.59
60337;BME280;46978;50.288;28.624;2022-09-19T05:39:42;97935.73;;;9.07;95.54
60337;BME280;46978;50.288;28.624;2022-09-19T05:40:43;97943.44;;;9.09;95.37
60337;BME280;46978;50.288;28.624;2022-09-19T05:41:45;97941.72;;;9.09;95.60
60337;BME280;46978;50.288;28.624;2022-09-19T05:42:47;97943.33;;;9.12;95.75
60337;BME280;46978;50.288;28.624;2022-09-19T05:43:49;97941.61;;;9.12;95.42
60337;BME280;46978;50.288;28.624;2022-09-19T05:44:51;97948.45;;;9.13;95.31
60337;BME280;46978;50.288;28.624;2022-09-19T05:45:54;97951.80;;;9.17;95.48
60337;BME280;46978;50.288;28.624;2022-09-19T05:46:56;97943.12;;;9.18;95.24
60337;BME280;46978;50.288;28.624;2022-09-19T05:48:03;97946.57;;;9.19;94.94
60337;BME280;46978;50.288;28.624;2022-09-19T05:49:05;97950.77;;;9.21;94.86
60337;BME280;46978;50.288;28.624;2022-09-19T05:50:10;97954.23;;;9.22;94.67
60337;BME280;46978;50.288;28.624;2022-09-19T05:51:12;97956.81;;;9.22;94.63
60337;BME280;46978;50.288;28.624;2022-09-19T05:52:13;97961.99;;;9.22;94.45
60337;BME280;46978;50.288;28.624;2022-09-19T05:53:16;97955.95;;;9.21;94.40
60337;BME280;46978;50.288;28.624;2022-09-19T05:54:18;97955.06;;;9.22;94.64
60337;BME280;46978;50.288;28.624;2022-09-19T05:55:19;97956.73;;;9.23;94.39
60337;BME280;46978;50.288;28.624;2022-09-19T05:56:22;97958.48;;;9.23;93.70
60337;BME280;46978;50.288;28.624;2022-09-19T05:57:24;97958.48;;;9.23;93.70
60337;BME280;46978;50.288;28.624;2022-09-19T05:58:28;97948.13;;;9.23;93.44
60337;BME280;46978;50.288;28.624;2022-09-19T05:59:29;97963.61;;;9.24;93.18
60337;BME280;46978;50.288;28.624;2022-09-19T06:00:32;97974.80;;;9.25;93.01
60337;BME280;46978;50.288;28.624;2022-09-19T06:01:34;97972.16;;;9.26;93.51
60337;BME280;46978;50.288;28.624;2022-09-19T06:02:36;97969.40;;;9.31;93.65
60337;BME280;46978;50.288;28.624;2022-09-19T06:03:38;97968.45;;;9.33;92.92